Time;durP1;ratioP1;P1;durP2;ratioP2;P2;SDS_P1;SDS_P2;PMS_P1;PMS_P2;Temp;Humidity;BMP_temperature;BMP_pressure;BME280_temperature;BME280_humidity;BME280_pressure;Samples;Min_cycle;Max_cycle;Signal;HPM_P1;HPM_P2
2022/10/15 00:00:02;;;;;;;13.03;11.67;;;13.60;99.90;;;;;;5041839;28;20416;-73
2022/10/15 00:02:28;;;;;;;19.47;13.60;;;13.60;99.90;;;;;;5036264;28;20249;-74
2022/10/15 00:04:53;;;;;;;14.63;11.83;;;13.60;99.90;;;;;;5047184;28;20943;-75
2022/10/15 00:07:19;;;;;;;18.47;12.87;;;13.60;99.90;;;;;;5036140;28;20195;-74
2022/10/15 00:09:44;;;;;;;18.63;12.70;;;13.60;99.90;;;;;;5042640;28;20170;-75
2022/10/15 00:12:10;;;;;;;15.37;12.53;;;13.60;99.90;;;;;;5042741;28;20683;-74
2022/10/15 00:14:35;;;;;;;19.50;13.87;;;13.60;99.90;;;;;;5035025;28;20160;-75
2022/10/15 00:17:01;;;;;;;18.23;14.13;;;13.60;99.90;;;;;;5046444;28;20259;-75
2022/10/15 00:19:26;;;;;;;16.93;13.37;;;13.60;99.90;;;;;;5036504;28;20194;-74
2022/10/15 00:21:52;;;;;;;16.00;11.80;;;13.60;99.90;;;;;;5023037;28;20271;-75
2022/10/15 00:24:18;;;;;;;15.30;12.13;;;13.50;99.90;;;;;;5030852;28;20342;-73
2022/10/15 00:26:44;;;;;;;18.73;13.53;;;13.50;99.90;;;;;;5030759;28;20721;-74
2022/10/15 00:29:10;;;;;;;15.20;11.30;;;13.50;99.90;;;;;;5043617;28;20497;-76
2022/10/15 00:31:36;;;;;;;17.47;11.90;;;13.50;99.90;;;;;;5031933;28;20195;-75
2022/10/15 00:34:02;;;;;;;17.77;13.37;;;13.50;99.90;;;;;;5041169;28;20487;-74
2022/10/15 00:36:30;;;;;;;17.77;13.67;;;13.40;99.90;;;;;;5035446;28;20186;-74
2022/10/15 00:38:56;;;;;;;16.47;11.40;;;13.40;99.90;;;;;;5028851;28;20174;-74
2022/10/15 00:41:29;;;;;;;18.63;12.57;;;13.40;99.90;;;;;;5047963;23;20537;-70
2022/10/15 00:43:58;;;;;;;18.73;13.87;;;13.40;99.90;;;;;;5016088;28;20215;-70
2022/10/15 00:46:35;;;;;;;20.43;13.57;;;13.40;99.90;;;;;;5028122;28;20513;-70
2022/10/15 00:49:17;;;;;;;16.57;13.07;;;13.30;99.90;;;;;;5018127;28;20418;-69
2022/10/15 00:51:53;;;;;;;24.07;14.80;;;13.30;99.90;;;;;;5025833;28;20414;-70
2022/10/15 00:54:20;;;;;;;21.63;14.17;;;13.20;99.90;;;;;;5042314;28;20395;-69
2022/10/15 00:56:47;;;;;;;19.00;13.50;;;13.20;99.90;;;;;;5034702;28;20504;-70
2022/10/15 00:59:15;;;;;;;19.73;15.00;;;13.20;99.90;;;;;;5050144;28;20405;-69
2022/10/15 01:01:40;;;;;;;20.80;15.10;;;13.20;99.90;;;;;;5041733;28;20453;-69
2022/10/15 01:04:06;;;;;;;22.27;14.20;;;13.20;99.90;;;;;;5042353;28;20919;-68
2022/10/15 01:06:32;;;;;;;23.63;15.27;;;13.20;99.90;;;;;;5042859;28;20187;-70
2022/10/15 01:08:59;;;;;;;18.27;13.73;;;13.20;99.90;;;;;;5018358;28;20450;-69
2022/10/15 01:11:45;;;;;;;21.13;13.43;;;13.10;99.90;;;;;;5048410;28;20433;-69
2022/10/15 01:14:53;;;;;;;19.07;13.77;;;13.10;99.90;;;;;;5046740;28;20406;-68
2022/10/15 01:17:37;;;;;;;20.70;12.63;;;13.10;99.90;;;;;;5023638;28;20896;-68
2022/10/15 01:20:33;;;;;;;22.13;13.40;;;13.10;99.90;;;;;;5033717;28;20413;-69
2022/10/15 01:23:39;;;;;;;21.10;13.40;;;13.00;99.90;;;;;;5043766;28;20801;-69
2022/10/15 01:26:35;;;;;;;19.57;14.40;;;13.10;99.90;;;;;;5023831;28;20419;-69
2022/10/15 01:29:27;;;;;;;18.80;13.67;;;13.10;99.90;;;;;;5032538;28;20457;-69
2022/10/15 01:32:05;;;;;;;19.20;14.60;;;13.10;99.90;;;;;;5051358;28;20425;-70
2022/10/15 01:34:45;;;;;;;18.90;14.00;;;13.10;99.90;;;;;;5042517;28;20429;-70
2022/10/15 01:37:22;;;;;;;19.17;15.13;;;13.10;99.90;;;;;;5034945;28;20410;-70
2022/10/15 01:40:02;;;;;;;22.83;14.00;;;13.10;99.90;;;;;;5050953;28;20408;-69
2022/10/15 01:42:33;;;;;;;23.50;15.00;;;13.10;99.90;;;;;;5041725;28;20498;-70
2022/10/15 01:45:06;;;;;;;18.43;12.93;;;13.10;99.90;;;;;;5043537;28;20442;-70
2022/10/15 01:47:47;;;;;;;19.53;14.73;;;13.10;99.90;;;;;;5050636;28;20499;-70
2022/10/15 01:50:17;;;;;;;19.90;14.80;;;13.10;99.90;;;;;;5025346;28;20421;-71
2022/10/15 01:52:43;;;;;;;22.00;14.13;;;13.20;99.90;;;;;;5045564;28;20805;-69
2022/10/15 01:55:12;;;;;;;19.43;12.37;;;13.20;99.90;;;;;;5046886;28;20484;-70
2022/10/15 01:57:41;;;;;;;19.93;13.80;;;13.10;99.90;;;;;;5037880;28;20414;-69
2022/10/15 02:00:07;;;;;;;16.83;12.67;;;13.20;99.90;;;;;;5050043;28;20911;-69
2022/10/15 02:02:33;;;;;;;18.23;13.70;;;13.20;99.90;;;;;;5041861;28;20437;-69
2022/10/15 02:04:59;;;;;;;21.97;13.50;;;13.20;99.90;;;;;;5042585;28;20509;-68
2022/10/15 02:07:48;;;;;;;23.37;15.60;;;13.20;99.90;;;;;;5049009;28;20230;-69
2022/10/15 02:10:26;;;;;;;21.23;13.67;;;13.20;99.90;;;;;;5027061;28;20186;-69
2022/10/15 02:13:06;;;;;;;17.27;13.10;;;13.20;99.90;;;;;;5046764;28;20432;-69
2022/10/15 02:15:37;;;;;;;21.67;13.57;;;13.20;99.90;;;;;;5053763;28;20462;-69
2022/10/15 02:18:08;;;;;;;26.27;13.43;;;13.20;99.90;;;;;;5038601;28;20401;-69
2022/10/15 02:20:44;;;;;;;19.03;14.10;;;13.10;99.90;;;;;;5039173;28;20413;-72
2022/10/15 02:23:17;;;;;;;15.90;12.57;;;13.20;99.90;;;;;;5042974;28;20445;-70
2022/10/15 02:25:44;;;;;;;19.80;13.03;;;13.20;99.90;;;;;;5038342;28;20412;-70
2022/10/15 02:28:12;;;;;;;26.53;13.70;;;13.20;99.90;;;;;;5038065;28;20461;-70
2022/10/15 02:30:40;;;;;;;18.60;13.20;;;13.20;99.90;;;;;;5044842;28;20508;-69
2022/10/15 02:33:07;;;;;;;22.43;12.47;;;13.20;99.90;;;;;;5043619;28;20437;-70
2022/10/15 02:35:34;;;;;;;21.40;12.97;;;13.20;99.90;;;;;;5042616;28;20869;-70
2022/10/15 02:38:05;;;;;;;15.83;12.20;;;13.20;99.90;;;;;;5023425;28;20413;-70
2022/10/15 02:40:33;;;;;;;19.20;14.40;;;13.20;99.90;;;;;;5048163;28;20469;-70
2022/10/15 02:42:59;;;;;;;21.43;15.07;;;13.20;99.90;;;;;;5047025;28;20452;-71
2022/10/15 02:45:25;;;;;;;19.17;13.83;;;13.20;99.90;;;;;;5040074;28;20418;-70
2022/10/15 02:47:50;;;;;;;18.70;13.10;;;13.20;99.90;;;;;;5050182;28;20450;-70
2022/10/15 02:50:16;;;;;;;18.40;12.57;;;13.20;99.90;;;;;;5041355;28;20163;-69
2022/10/15 02:52:41;;;;;;;19.10;13.80;;;13.20;99.90;;;;;;5047093;28;20274;-71
2022/10/15 02:55:10;;;;;;;19.77;14.43;;;13.20;99.90;;;;;;5051206;28;20181;-71
2022/10/15 02:57:36;;;;;;;19.30;13.73;;;13.30;99.90;;;;;;5023463;28;20172;-69
2022/10/15 03:00:03;;;;;;;18.70;12.93;;;13.30;99.90;;;;;;5054780;28;20429;-70
2022/10/15 03:02:28;;;;;;;21.53;14.33;;;13.20;99.90;;;;;;5046627;28;20198;-69
2022/10/15 03:04:54;;;;;;;17.07;12.80;;;13.30;99.90;;;;;;5047110;28;20410;-70
2022/10/15 03:07:19;;;;;;;18.70;13.10;;;13.20;99.90;;;;;;5039539;28;20294;-70
2022/10/15 03:09:45;;;;;;;18.00;13.37;;;13.30;99.90;;;;;;5040970;28;20171;-71
2022/10/15 03:12:10;;;;;;;18.40;14.50;;;13.30;99.90;;;;;;5036019;28;20183;-70
2022/10/15 03:14:36;;;;;;;19.50;13.50;;;13.30;99.90;;;;;;5047286;28;20171;-70
2022/10/15 03:17:01;;;;;;;20.97;14.70;;;13.30;99.90;;;;;;5047018;28;20207;-70
2022/10/15 03:19:27;;;;;;;20.07;12.40;;;13.30;99.90;;;;;;5043355;28;20664;-69
2022/10/15 03:21:53;;;;;;;19.87;14.10;;;13.30;99.90;;;;;;5041667;28;20206;-70
2022/10/15 03:24:18;;;;;;;20.13;14.40;;;13.30;99.90;;;;;;5042447;28;20211;-70
2022/10/15 03:26:44;;;;;;;15.20;13.60;;;13.20;99.90;;;;;;5040708;28;20218;-71
2022/10/15 03:29:09;;;;;;;19.73;13.30;;;13.20;99.90;;;;;;5039033;28;20176;-69
2022/10/15 03:31:35;;;;;;;18.07;14.77;;;13.20;99.90;;;;;;5054902;28;20203;-70
2022/10/15 03:34:00;;;;;;;19.53;14.20;;;13.20;99.90;;;;;;5024796;28;20175;-70
2022/10/15 03:36:26;;;;;;;19.73;12.87;;;13.20;99.90;;;;;;5041607;28;20170;-70
2022/10/15 03:38:52;;;;;;;17.87;13.03;;;13.10;99.90;;;;;;5049154;28;20253;-70
2022/10/15 03:41:17;;;;;;;16.90;13.73;;;13.10;99.90;;;;;;5044391;28;20264;-70
2022/10/15 03:43:43;;;;;;;18.47;14.00;;;13.10;99.90;;;;;;5054122;28;20178;-70
2022/10/15 03:46:08;;;;;;;19.93;13.50;;;13.10;99.90;;;;;;5042136;28;20221;-70
2022/10/15 03:48:34;;;;;;;16.40;11.53;;;13.10;99.90;;;;;;5050101;28;20199;-70
2022/10/15 03:50:59;;;;;;;17.83;12.73;;;13.10;99.90;;;;;;5049603;28;20203;-70
2022/10/15 03:53:25;;;;;;;17.87;13.50;;;13.10;99.90;;;;;;5042431;28;20720;-70
2022/10/15 03:55:50;;;;;;;20.27;15.27;;;13.10;99.90;;;;;;5053856;28;20171;-70
2022/10/15 03:58:16;;;;;;;22.43;15.10;;;13.10;99.90;;;;;;5044260;28;20197;-70
2022/10/15 04:00:43;;;;;;;17.90;13.30;;;13.10;99.90;;;;;;5048295;28;20172;-70
2022/10/15 04:03:08;;;;;;;16.70;13.67;;;13.10;99.90;;;;;;5050478;28;20175;-70
2022/10/15 04:05:35;;;;;;;21.47;14.23;;;13.10;99.90;;;;;;5041102;28;20418;-70
2022/10/15 04:08:00;;;;;;;19.70;13.20;;;13.10;99.90;;;;;;5025280;28;20187;-69
2022/10/15 04:10:26;;;;;;;21.67;13.00;;;13.10;99.90;;;;;;5033543;28;20429;-71
2022/10/15 04:12:51;;;;;;;18.43;13.83;;;13.10;99.90;;;;;;5048992;28;20191;-71
2022/10/15 04:15:17;;;;;;;16.70;13.00;;;13.10;99.90;;;;;;5044485;28;20175;-70
2022/10/15 04:17:42;;;;;;;18.70;16.33;;;13.10;99.90;;;;;;5042104;28;20179;-69
2022/10/15 04:20:08;;;;;;;21.70;14.10;;;13.10;99.90;;;;;;5041185;28;20186;-70
2022/10/15 04:22:36;;;;;;;19.67;14.37;;;13.10;99.90;;;;;;5049384;28;20222;-70
2022/10/15 04:25:01;;;;;;;18.20;13.03;;;13.10;99.90;;;;;;5049474;28;20424;-70
2022/10/15 04:27:27;;;;;;;17.50;13.57;;;13.10;99.90;;;;;;5041680;28;20458;-69
2022/10/15 04:29:53;;;;;;;15.93;13.40;;;13.10;99.90;;;;;;5039143;28;20197;-69
2022/10/15 04:32:18;;;;;;;18.93;12.50;;;13.20;99.90;;;;;;5050621;28;20693;-70
2022/10/15 04:34:45;;;;;;;21.10;13.30;;;13.10;99.90;;;;;;5044110;28;20211;-70
2022/10/15 04:37:11;;;;;;;18.20;13.50;;;13.20;99.90;;;;;;5050281;28;20179;-69
2022/10/15 04:39:37;;;;;;;19.60;13.10;;;13.20;99.90;;;;;;5042319;28;20514;-71
2022/10/15 04:42:02;;;;;;;14.47;12.03;;;13.20;99.90;;;;;;5054867;28;20221;-71
2022/10/15 04:44:28;;;;;;;17.80;12.93;;;13.10;99.90;;;;;;5046730;28;20670;-69
2022/10/15 04:46:54;;;;;;;17.27;12.23;;;13.10;99.90;;;;;;5048021;28;20233;-70
2022/10/15 04:49:19;;;;;;;14.10;12.60;;;13.20;99.90;;;;;;5051352;28;20178;-70
2022/10/15 04:51:44;;;;;;;16.17;13.77;;;13.20;99.90;;;;;;5038200;28;20247;-70
2022/10/15 04:54:10;;;;;;;18.57;13.80;;;13.20;99.90;;;;;;5049831;28;20175;-70
2022/10/15 04:56:36;;;;;;;18.47;12.90;;;13.20;99.90;;;;;;5043215;28;20637;-70
2022/10/15 04:59:05;;;;;;;17.47;12.87;;;13.20;99.90;;;;;;5044335;28;20245;-70
2022/10/15 05:01:30;;;;;;;19.03;13.80;;;13.20;99.90;;;;;;5051964;28;20263;-71
2022/10/15 05:03:56;;;;;;;14.07;11.40;;;13.20;99.90;;;;;;5039569;28;20452;-70
2022/10/15 05:06:21;;;;;;;15.77;12.10;;;13.20;99.90;;;;;;5049216;28;20579;-70
2022/10/15 05:08:48;;;;;;;16.20;12.33;;;13.20;99.90;;;;;;5047608;28;20207;-70
2022/10/15 05:11:22;;;;;;;17.87;13.13;;;13.20;99.90;;;;;;5042600;28;20199;-71
2022/10/15 05:13:48;;;;;;;17.30;12.10;;;13.20;99.90;;;;;;5052223;28;20413;-71
2022/10/15 05:16:17;;;;;;;19.13;12.83;;;13.20;99.90;;;;;;5040055;28;20500;-71
2022/10/15 05:18:44;;;;;;;17.00;11.30;;;13.20;99.90;;;;;;5036019;28;20419;-68
2022/10/15 05:21:11;;;;;;;15.37;12.27;;;13.30;99.90;;;;;;5049362;28;20429;-70
2022/10/15 05:23:37;;;;;;;17.00;12.23;;;13.30;99.90;;;;;;5038338;28;20920;-71
2022/10/15 05:26:06;;;;;;;17.90;12.47;;;13.30;99.90;;;;;;5051282;28;20414;-71
2022/10/15 05:28:31;;;;;;;15.60;12.17;;;13.30;99.90;;;;;;5036438;28;20454;-71
2022/10/15 05:31:06;;;;;;;14.60;11.47;;;13.30;99.90;;;;;;5029587;28;20452;-71
2022/10/15 05:33:32;;;;;;;14.20;12.40;;;13.30;99.90;;;;;;5037101;28;20579;-70
2022/10/15 05:36:06;;;;;;;15.00;10.80;;;13.30;99.90;;;;;;5041126;28;20406;-70
2022/10/15 05:38:32;;;;;;;11.67;10.47;;;13.30;99.90;;;;;;5043162;28;20633;-70
2022/10/15 05:40:57;;;;;;;16.70;11.10;;;13.30;99.90;;;;;;5042195;28;20438;-68
2022/10/15 05:43:22;;;;;;;15.40;10.30;;;13.20;99.90;;;;;;5050162;28;20322;-70
2022/10/15 05:45:49;;;;;;;13.93;10.87;;;13.30;99.90;;;;;;5040485;28;20188;-69
2022/10/15 05:48:14;;;;;;;14.30;10.90;;;13.20;99.90;;;;;;5052685;28;20261;-72
2022/10/15 05:50:40;;;;;;;16.63;11.47;;;13.20;99.90;;;;;;5048901;28;20504;-70
2022/10/15 05:53:05;;;;;;;13.37;12.00;;;13.20;99.90;;;;;;5045275;28;20195;-69
2022/10/15 05:55:31;;;;;;;16.50;10.83;;;13.20;99.90;;;;;;5055097;28;20179;-71
2022/10/15 05:58:01;;;;;;;13.67;11.10;;;13.20;99.90;;;;;;5043026;28;20567;-70
2022/10/15 06:00:27;;;;;;;11.80;10.20;;;13.20;99.90;;;;;;5051083;28;20206;-71
2022/10/15 06:02:52;;;;;;;10.97;9.40;;;13.20;99.90;;;;;;5049476;28;20778;-70
2022/10/15 06:05:18;;;;;;;16.17;12.77;;;13.30;99.90;;;;;;5045056;28;20180;-71
2022/10/15 06:07:43;;;;;;;16.10;10.37;;;13.30;99.90;;;;;;5055927;28;20262;-71
2022/10/15 06:10:09;;;;;;;14.50;10.73;;;13.40;99.90;;;;;;5043756;28;20167;-71
2022/10/15 06:12:34;;;;;;;13.30;10.73;;;13.40;99.90;;;;;;5050600;28;20223;-69
2022/10/15 06:15:00;;;;;;;12.83;10.23;;;13.40;99.90;;;;;;5049803;28;20173;-70
2022/10/15 06:17:26;;;;;;;11.03;9.90;;;13.40;99.90;;;;;;5043574;28;20237;-71
2022/10/15 06:19:51;;;;;;;14.03;10.60;;;13.40;99.90;;;;;;5042962;28;20186;-72
2022/10/15 06:22:17;;;;;;;17.93;12.13;;;13.50;99.90;;;;;;5043476;28;20222;-71
2022/10/15 06:24:42;;;;;;;14.60;11.50;;;13.50;99.90;;;;;;5037414;28;20210;-70
2022/10/15 06:27:08;;;;;;;12.60;11.00;;;13.50;99.90;;;;;;5039926;28;20203;-70
2022/10/15 06:29:34;;;;;;;14.10;9.80;;;13.50;99.90;;;;;;5037469;28;20183;-70
2022/10/15 06:32:00;;;;;;;14.60;10.80;;;13.50;99.90;;;;;;5023302;28;20455;-72
2022/10/15 06:34:26;;;;;;;12.80;9.60;;;13.50;99.90;;;;;;5048147;28;20160;-70
2022/10/15 06:36:52;;;;;;;12.33;9.43;;;13.50;99.90;;;;;;5045351;28;20492;-70
2022/10/15 06:39:17;;;;;;;13.63;9.23;;;13.50;99.90;;;;;;5040976;28;20167;-70
2022/10/15 06:41:43;;;;;;;17.27;10.10;;;13.60;99.90;;;;;;5062222;22;20658;-74
2022/10/15 06:44:08;;;;;;;12.27;8.73;;;13.60;99.90;;;;;;5036710;28;20171;-71
2022/10/15 06:46:35;;;;;;;10.50;8.97;;;13.70;99.90;;;;;;5031329;28;20639;-75
2022/10/15 06:49:01;;;;;;;11.93;9.97;;;13.80;99.90;;;;;;5037657;28;20195;-75
2022/10/15 06:51:26;;;;;;;11.33;9.03;;;13.90;99.90;;;;;;5053699;28;20438;-75
2022/10/15 06:53:52;;;;;;;10.07;8.90;;;14.00;99.90;;;;;;5057644;28;20226;-75
2022/10/15 06:56:17;;;;;;;9.87;8.20;;;14.30;99.90;;;;;;5058814;28;20221;-74
2022/10/15 06:58:43;;;;;;;9.73;8.50;;;14.40;99.90;;;;;;5054037;28;20646;-74
2022/10/15 07:01:09;;;;;;;8.87;6.90;;;14.80;99.90;;;;;;5037542;28;20191;-75
2022/10/15 07:03:37;;;;;;;8.67;7.30;;;14.90;99.90;;;;;;5034411;28;20175;-75
2022/10/15 07:06:04;;;;;;;8.10;7.23;;;14.80;99.90;;;;;;5038482;28;20193;-74
2022/10/15 07:08:30;;;;;;;10.90;7.00;;;14.80;99.90;;;;;;5049636;28;20476;-74
2022/10/15 07:10:56;;;;;;;8.37;7.47;;;15.10;99.90;;;;;;5044595;28;20839;-75
2022/10/15 07:13:21;;;;;;;9.47;7.27;;;15.10;99.90;;;;;;5053187;28;20437;-74
2022/10/15 07:15:52;;;;;;;10.00;9.00;;;15.10;99.90;;;;;;5053155;28;20174;-74
2022/10/15 07:18:18;;;;;;;9.37;8.43;;;15.10;99.90;;;;;;5039745;28;20178;-74
2022/10/15 07:20:44;;;;;;;9.73;8.73;;;15.10;99.90;;;;;;5044540;28;20408;-75
2022/10/15 07:23:09;;;;;;;10.60;7.90;;;15.00;99.90;;;;;;5049439;28;20192;-75
2022/10/15 07:25:35;;;;;;;10.97;7.47;;;14.80;99.90;;;;;;5053909;28;20424;-74
2022/10/15 07:28:00;;;;;;;11.07;8.97;;;14.80;99.90;;;;;;5042014;28;20226;-74
2022/10/15 07:30:27;;;;;;;9.70;8.20;;;14.80;99.90;;;;;;5044245;28;20309;-74
2022/10/15 07:32:56;;;;;;;10.93;8.80;;;14.60;99.90;;;;;;5056258;28;20184;-74
2022/10/15 07:35:22;;;;;;;9.83;7.77;;;14.70;99.90;;;;;;5042402;28;20438;-75
2022/10/15 07:37:49;;;;;;;12.30;8.07;;;14.90;99.90;;;;;;5056172;28;20420;-75
2022/10/15 07:40:15;;;;;;;11.80;7.37;;;14.90;99.90;;;;;;5056327;28;20404;-75
2022/10/15 07:42:41;;;;;;;9.13;8.23;;;15.00;99.90;;;;;;5056031;28;20456;-74
2022/10/15 07:45:07;;;;;;;10.40;7.83;;;15.20;99.90;;;;;;5052706;28;20454;-75
2022/10/15 07:47:32;;;;;;;11.03;8.50;;;15.50;99.90;;;;;;5052183;28;20206;-74
2022/10/15 07:49:58;;;;;;;8.70;7.80;;;15.70;99.90;;;;;;5037056;28;20409;-74
2022/10/15 07:52:23;;;;;;;9.13;6.93;;;15.80;99.90;;;;;;5052695;28;20193;-73
2022/10/15 07:54:49;;;;;;;9.00;7.03;;;15.90;99.90;;;;;;5052633;28;20550;-74
2022/10/15 07:57:15;;;;;;;8.73;7.33;;;15.90;99.90;;;;;;5052873;28;20177;-74
2022/10/15 07:59:40;;;;;;;10.00;7.30;;;16.10;99.90;;;;;;5052418;28;20203;-76
2022/10/15 08:02:14;;;;;;;8.53;7.60;;;16.30;99.90;;;;;;5052825;28;20483;-75
2022/10/15 08:04:39;;;;;;;7.90;6.57;;;16.30;99.90;;;;;;5052444;28;20186;-75
2022/10/15 08:07:05;;;;;;;7.57;5.50;;;16.90;99.90;;;;;;5039984;28;20426;-75
2022/10/15 08:09:30;;;;;;;6.13;5.53;;;17.80;99.90;;;;;;5034590;28;20529;-74
2022/10/15 08:11:56;;;;;;;7.27;6.07;;;18.10;99.90;;;;;;5052145;28;20197;-76
2022/10/15 08:14:21;;;;;;;6.80;5.53;;;18.20;99.90;;;;;;5052306;28;20179;-74
2022/10/15 08:16:47;;;;;;;6.80;6.10;;;18.10;99.90;;;;;;5046785;28;20506;-73
2022/10/15 08:19:16;;;;;;;7.00;5.90;;;17.90;99.90;;;;;;5037679;28;20196;-74
2022/10/15 08:21:42;;;;;;;7.23;6.53;;;17.70;99.90;;;;;;5049198;28;20202;-74
2022/10/15 08:24:07;;;;;;;7.87;6.43;;;17.60;99.90;;;;;;5041419;28;20482;-75
2022/10/15 08:26:34;;;;;;;6.90;5.60;;;17.40;99.90;;;;;;5047290;28;20428;-74
2022/10/15 08:28:59;;;;;;;6.60;5.90;;;17.50;99.90;;;;;;5035322;28;20200;-74
2022/10/15 08:31:25;;;;;;;9.03;6.60;;;17.40;99.90;;;;;;5046875;28;20428;-74
2022/10/15 08:33:51;;;;;;;7.63;6.37;;;17.60;99.90;;;;;;5051820;28;20170;-73
2022/10/15 08:36:17;;;;;;;6.73;6.03;;;17.50;99.90;;;;;;5041652;28;20198;-69
2022/10/15 08:38:43;;;;;;;10.17;6.67;;;17.40;99.90;;;;;;5051495;28;20450;-74
2022/10/15 08:41:22;;;;;;;7.07;5.60;;;17.50;99.90;;;;;;5051558;28;20178;-68
2022/10/15 08:43:47;;;;;;;7.93;6.20;;;17.80;99.90;;;;;;5051588;28;20204;-74
2022/10/15 08:46:24;;;;;;;6.63;5.97;;;17.40;99.90;;;;;;5051262;28;20430;-74
2022/10/15 08:48:54;;;;;;;6.50;5.63;;;17.60;99.90;;;;;;5040019;28;20292;-73
2022/10/15 08:51:22;;;;;;;6.70;5.83;;;17.90;99.90;;;;;;5045954;28;20438;-74
2022/10/15 08:53:52;;;;;;;7.07;5.67;;;18.50;99.90;;;;;;5049826;28;21002;-74
2022/10/15 08:56:29;;;;;;;16.33;11.60;;;18.70;99.90;;;;;;5037175;28;20737;-74
2022/10/15 08:59:23;;;;;;;6.70;5.17;;;18.90;99.90;;;;;;5051476;28;20459;-74
2022/10/15 09:02:25;;;;;;;5.97;5.47;;;19.50;99.90;;;;;;5051102;28;20432;-75
2022/10/15 09:04:59;;;;;;;7.00;5.67;;;20.10;99.90;;;;;;5051192;28;20765;-75
2022/10/15 09:07:53;;;;;;;5.73;5.23;;;20.10;99.90;;;;;;5037340;28;20471;-73
2022/10/15 09:10:40;;;;;;;5.87;5.37;;;19.20;99.90;;;;;;5020598;28;20450;-75
2022/10/15 09:13:23;;;;;;;7.37;5.73;;;18.70;99.90;;;;;;5051172;28;20761;-74
2022/10/15 09:16:24;;;;;;;7.20;5.70;;;18.20;99.90;;;;;;5050930;28;20413;-75
2022/10/15 09:18:51;;;;;;;8.87;6.00;;;18.30;99.90;;;;;;5027612;28;20422;-74
2022/10/15 09:21:19;;;;;;;7.60;6.97;;;18.50;99.90;;;;;;5045065;28;20414;-75
2022/10/15 09:23:44;;;;;;;7.60;6.40;;;18.40;99.90;;;;;;5040198;28;20434;-75
2022/10/15 09:26:45;;;;;;;8.50;5.20;;;18.30;99.90;;;;;;5044519;28;20486;-74
2022/10/15 09:29:40;;;;;;;9.23;6.13;;;18.80;99.90;;;;;;5033565;28;20564;-74
2022/10/15 09:32:20;;;;;;;7.00;6.30;;;18.30;99.90;;;;;;5019815;28;21032;-75
2022/10/15 09:34:53;;;;;;;7.90;7.10;;;18.20;99.90;;;;;;5047833;28;20401;-75
2022/10/15 09:37:28;;;;;;;6.87;6.00;;;18.20;99.90;;;;;;5045439;28;20435;-76
2022/10/15 09:40:10;;;;;;;5.83;5.03;;;18.20;99.90;;;;;;5050925;28;20409;-75
2022/10/15 09:42:40;;;;;;;6.80;5.43;;;18.00;99.90;;;;;;5051072;28;20445;-75
2022/10/15 09:45:10;;;;;;;6.73;5.90;;;17.90;99.90;;;;;;5050597;28;20470;-74
2022/10/15 09:47:38;;;;;;;6.13;5.53;;;18.20;99.90;;;;;;5037384;28;20817;-74
2022/10/15 09:50:06;;;;;;;8.23;6.27;;;18.20;99.90;;;;;;5039467;28;20769;-75
2022/10/15 09:52:44;;;;;;;5.83;5.30;;;18.30;99.90;;;;;;5048180;28;20429;-74
2022/10/15 09:55:30;;;;;;;6.70;6.00;;;18.70;99.90;;;;;;5043266;28;20425;-74
2022/10/15 09:58:02;;;;;;;5.80;5.17;;;19.00;99.90;;;;;;5050224;28;20417;-74
2022/10/15 10:00:55;;;;;;;7.03;5.80;;;19.30;99.90;;;;;;5050649;28;20407;-74
2022/10/15 10:03:23;;;;;;;6.30;5.70;;;19.00;99.90;;;;;;5050419;28;20443;-74
2022/10/15 10:05:49;;;;;;;6.00;5.40;;;18.60;99.90;;;;;;5040670;28;20418;-75
2022/10/15 10:08:14;;;;;;;10.30;8.13;;;18.20;99.90;;;;;;5046965;28;20492;-74
2022/10/15 10:10:41;;;;;;;6.77;6.10;;;18.30;99.90;;;;;;5038255;28;20893;-75
2022/10/15 10:13:21;;;;;;;6.33;5.57;;;18.50;99.90;;;;;;5050344;28;20714;-74
2022/10/15 10:15:49;;;;;;;9.30;6.53;;;18.70;99.90;;;;;;5050198;28;20405;-74
2022/10/15 10:18:20;;;;;;;7.50;6.20;;;18.40;99.90;;;;;;5035405;28;20419;-74
2022/10/15 10:20:57;;;;;;;7.10;6.13;;;18.40;99.90;;;;;;5040306;28;20447;-73
2022/10/15 10:23:28;;;;;;;7.63;6.17;;;18.60;99.90;;;;;;5039036;28;20430;-74
2022/10/15 10:25:56;;;;;;;8.83;7.57;;;18.90;99.90;;;;;;5045621;28;20422;-74
2022/10/15 10:28:31;;;;;;;6.87;6.20;;;18.80;99.90;;;;;;5032621;28;20453;-73
2022/10/15 10:30:57;;;;;;;7.53;6.20;;;18.70;99.90;;;;;;5044279;28;20844;-74
2022/10/15 10:33:29;;;;;;;6.77;6.17;;;18.50;99.90;;;;;;5052345;28;20511;-73
2022/10/15 10:35:55;;;;;;;5.93;5.33;;;18.60;99.90;;;;;;5042598;28;20182;-73
2022/10/15 10:38:28;;;;;;;7.70;6.33;;;18.50;99.90;;;;;;5053965;28;20420;-73
2022/10/15 10:40:57;;;;;;;6.40;5.80;;;18.60;99.90;;;;;;5054491;28;20416;-75
2022/10/15 10:43:26;;;;;;;7.27;5.90;;;18.80;99.90;;;;;;5054171;28;20951;-74
2022/10/15 10:46:05;;;;;;;6.47;5.77;;;18.70;99.90;;;;;;5054002;28;20420;-74
2022/10/15 10:48:43;;;;;;;6.00;5.37;;;18.80;99.90;;;;;;5037819;28;20457;-74
2022/10/15 10:51:15;;;;;;;5.07;4.57;;;18.80;99.90;;;;;;5046669;28;20915;-74
2022/10/15 10:53:55;;;;;;;6.23;5.37;;;18.70;99.90;;;;;;5043660;28;20408;-73
2022/10/15 10:56:31;;;;;;;5.30;4.80;;;18.70;99.90;;;;;;5053461;28;20466;-73
2022/10/15 10:59:14;;;;;;;6.47;4.70;;;18.60;99.90;;;;;;5053871;28;20900;-73
2022/10/15 11:01:40;;;;;;;5.67;4.50;;;18.60;99.90;;;;;;5053338;28;20441;-74
2022/10/15 11:04:22;;;;;;;6.10;5.47;;;18.80;99.90;;;;;;5053301;28;20402;-73
2022/10/15 11:07:02;;;;;;;5.30;4.80;;;19.10;99.90;;;;;;5044533;28;20618;-74
2022/10/15 11:09:57;;;;;;;6.60;5.90;;;19.20;99.90;;;;;;5039512;28;20533;-73
2022/10/15 11:12:44;;;;;;;5.53;5.03;;;19.10;99.90;;;;;;5026500;28;20642;-74
2022/10/15 11:15:17;;;;;;;6.30;5.67;;;18.90;99.90;;;;;;5053063;28;20444;-73
2022/10/15 11:17:43;;;;;;;6.83;5.93;;;18.90;99.90;;;;;;5051947;28;20499;-73
2022/10/15 11:20:31;;;;;;;5.33;4.83;;;19.00;99.90;;;;;;5037987;28;20503;-74
2022/10/15 11:23:25;;;;;;;5.40;4.90;;;19.20;99.90;;;;;;5053235;28;20553;-71
2022/10/15 11:25:58;;;;;;;5.77;4.03;;;19.40;99.90;;;;;;5048972;28;20422;-74
2022/10/15 11:28:24;;;;;;;4.00;3.63;;;19.20;99.90;;;;;;5028017;28;20504;-74
2022/10/15 11:31:14;;;;;;;4.80;4.33;;;19.20;99.90;;;;;;5041914;28;20420;-69
2022/10/15 11:34:07;;;;;;;5.20;4.70;;;19.30;99.90;;;;;;5052712;28;20165;-73
2022/10/15 11:36:44;;;;;;;4.77;4.30;;;19.40;99.90;;;;;;5045890;28;20424;-72
2022/10/15 11:39:16;;;;;;;4.77;4.27;;;19.30;99.90;;;;;;5045996;28;20409;-73
2022/10/15 11:42:03;;;;;;;6.03;5.17;;;19.40;99.90;;;;;;5052375;28;20528;-73
2022/10/15 11:44:37;;;;;;;4.63;4.13;;;19.10;99.90;;;;;;5052470;28;20763;-72
2022/10/15 11:47:26;;;;;;;4.80;4.30;;;19.10;99.90;;;;;;5052530;28;20404;-73
2022/10/15 11:50:04;;;;;;;5.00;4.50;;;19.00;99.90;;;;;;5053024;28;20502;-73
2022/10/15 11:52:48;;;;;;;4.53;4.17;;;18.80;99.90;;;;;;5053326;28;20418;-72
2022/10/15 11:55:21;;;;;;;6.33;4.90;;;18.90;99.90;;;;;;5052684;28;20507;-73
2022/10/15 11:57:50;;;;;;;5.13;3.90;;;19.10;99.90;;;;;;5055705;28;20422;-72
2022/10/15 12:00:31;;;;;;;5.33;4.17;;;19.10;99.90;;;;;;5053395;28;20404;-73
2022/10/15 12:03:05;;;;;;;3.77;3.43;;;19.30;99.90;;;;;;5051053;28;20924;-74
2022/10/15 12:05:37;;;;;;;3.77;3.40;;;19.10;99.90;;;;;;5052342;28;20412;-73
2022/10/15 12:08:03;;;;;;;4.07;3.67;;;19.20;99.90;;;;;;5018584;28;20449;-73
2022/10/15 12:10:41;;;;;;;4.37;4.00;;;19.00;99.90;;;;;;5039928;28;20489;-72
2022/10/15 12:13:50;;;;;;;4.07;3.73;;;19.10;99.90;;;;;;5051865;28;20514;-74
2022/10/15 12:16:22;;;;;;;4.00;3.70;;;19.40;99.90;;;;;;5022374;28;20926;-74
2022/10/15 12:19:06;;;;;;;3.87;3.47;;;19.20;99.90;;;;;;5036108;28;20772;-72
2022/10/15 12:21:55;;;;;;;4.17;3.77;;;19.20;99.90;;;;;;5048209;28;20466;-74
2022/10/15 12:24:43;;;;;;;3.80;3.50;;;19.30;99.90;;;;;;5032611;28;20986;-73
2022/10/15 12:27:18;;;;;;;4.87;4.37;;;19.40;99.90;;;;;;5040521;28;20408;-73
2022/10/15 12:29:48;;;;;;;2.90;2.70;;;19.40;99.90;;;;;;5036331;28;20416;-73
2022/10/15 12:32:37;;;;;;;8.60;5.33;;;19.20;99.90;;;;;;5046919;28;20427;-73
2022/10/15 12:35:16;;;;;;;5.93;5.30;;;19.30;99.90;;;;;;5034962;28;20404;-73
2022/10/15 12:37:45;;;;;;;5.40;4.90;;;19.30;99.90;;;;;;5052697;28;20412;-72
2022/10/15 12:40:22;;;;;;;3.20;2.90;;;19.30;99.90;;;;;;5054196;28;20475;-72
2022/10/15 12:42:53;;;;;;;5.10;3.37;;;19.40;99.90;;;;;;5058930;22;21004;-70
2022/10/15 12:45:40;;;;;;;4.30;3.60;;;19.30;99.90;;;;;;5028729;28;20485;-70
2022/10/15 12:48:18;;;;;;;3.23;2.93;;;19.20;99.90;;;;;;5018243;28;20505;-70
2022/10/15 12:50:43;;;;;;;6.93;3.80;;;19.20;99.90;;;;;;5041554;28;20445;-70
2022/10/15 12:53:33;;;;;;;3.07;2.80;;;19.30;99.90;;;;;;5051227;28;20847;-70